Bliss, Idaho
Current Conditions -  °F | °C
As of 9:53 PM on Saturday 22 Nov 2014 (Local Time) from KJER Reporting Station
Broken Clouds Broken Clouds  
Wind Chill: 23°   Ceiling: 4700
Heat Index: 35°   Visibility: 10mi
Dew Point: 30°   Wind: 24mph
Humidity: 82%   Direction: 230°SW
Pressure: 29.94"   Gusts: 31mph
Location:  42.93°N, 114.95°W
Report Text: KJER 230453Z AUTO 23021G27KT 10SM FEW019 BKN047 02/M01 A2994 RMK AO2 PK WND 23027/0453 SLP147 T00171011
Loading
Personal Weather Stations






























Interactive Weather Map New forecast layout! Learn more

10-Day Weather Forecast

Advertisements
Track Severe Weather on mobile